sensor_id;sensor_type;location;lat;lon;timestamp;P1;durP1;ratioP1;P2;durP2;ratioP2
819;SDS011;392;48.838;2.322;2023-08-08T00:01:41;5.17;;;2.50;;
819;SDS011;392;48.838;2.322;2023-08-08T00:04:09;3.13;;;2.90;;
819;SDS011;392;48.838;2.322;2023-08-08T00:06:38;3.03;;;2.83;;
819;SDS011;392;48.838;2.322;2023-08-08T00:09:05;3.27;;;3.00;;
819;SDS011;392;48.838;2.322;2023-08-08T00:11:33;3.23;;;3.00;;
819;SDS011;392;48.838;2.322;2023-08-08T00:14:00;2.90;;;2.70;;
819;SDS011;392;48.838;2.322;2023-08-08T00:16:28;3.03;;;2.83;;
819;SDS011;392;48.838;2.322;2023-08-08T00:18:55;3.07;;;2.87;;
819;SDS011;392;48.838;2.322;2023-08-08T00:21:23;3.10;;;2.90;;
819;SDS011;392;48.838;2.322;2023-08-08T00:23:51;3.00;;;2.77;;
819;SDS011;392;48.838;2.322;2023-08-08T00:26:19;3.87;;;3.00;;
819;SDS011;392;48.838;2.322;2023-08-08T00:28:46;2.87;;;2.77;;
819;SDS011;392;48.838;2.322;2023-08-08T00:31:13;3.30;;;3.00;;
819;SDS011;392;48.838;2.322;2023-08-08T00:33:43;3.43;;;3.10;;
819;SDS011;392;48.838;2.322;2023-08-08T00:36:10;3.27;;;3.07;;
819;SDS011;392;48.838;2.322;2023-08-08T00:38:37;3.20;;;3.00;;
819;SDS011;392;48.838;2.322;2023-08-08T00:41:06;4.00;;;3.10;;
819;SDS011;392;48.838;2.322;2023-08-08T00:43:34;3.30;;;3.00;;
819;SDS011;392;48.838;2.322;2023-08-08T00:46:01;5.53;;;2.83;;
819;SDS011;392;48.838;2.322;2023-08-08T00:48:28;23.83;;;5.40;;
819;SDS011;392;48.838;2.322;2023-08-08T00:50:57;3.13;;;2.93;;
819;SDS011;392;48.838;2.322;2023-08-08T00:53:25;3.00;;;2.80;;
819;SDS011;392;48.838;2.322;2023-08-08T00:55:58;3.40;;;3.10;;
819;SDS011;392;48.838;2.322;2023-08-08T00:58:27;3.70;;;3.40;;
819;SDS011;392;48.838;2.322;2023-08-08T01:00:55;3.43;;;2.63;;
819;SDS011;392;48.838;2.322;2023-08-08T01:03:25;3.57;;;3.13;;
819;SDS011;392;48.838;2.322;2023-08-08T01:05:54;3.00;;;2.80;;
819;SDS011;392;48.838;2.322;2023-08-08T01:08:32;3.00;;;2.80;;
819;SDS011;392;48.838;2.322;2023-08-08T01:11:05;3.40;;;3.17;;
819;SDS011;392;48.838;2.322;2023-08-08T01:13:35;3.27;;;2.97;;
819;SDS011;392;48.838;2.322;2023-08-08T01:16:04;7.43;;;2.93;;
819;SDS011;392;48.838;2.322;2023-08-08T01:18:32;4.43;;;3.43;;
819;SDS011;392;48.838;2.322;2023-08-08T01:21:00;3.10;;;2.90;;
819;SDS011;392;48.838;2.322;2023-08-08T01:23:30;3.27;;;2.80;;
819;SDS011;392;48.838;2.322;2023-08-08T01:26:04;4.80;;;2.93;;
819;SDS011;392;48.838;2.322;2023-08-08T01:28:31;3.20;;;2.87;;
819;SDS011;392;48.838;2.322;2023-08-08T01:31:01;3.07;;;2.87;;
819;SDS011;392;48.838;2.322;2023-08-08T01:33:28;3.13;;;2.67;;
819;SDS011;392;48.838;2.322;2023-08-08T01:35:58;3.33;;;3.13;;
819;SDS011;392;48.838;2.322;2023-08-08T01:38:31;2.80;;;2.60;;
819;SDS011;392;48.838;2.322;2023-08-08T01:41:04;3.13;;;2.83;;
819;SDS011;392;48.838;2.322;2023-08-08T01:43:34;3.27;;;2.97;;
819;SDS011;392;48.838;2.322;2023-08-08T01:46:03;5.47;;;2.90;;
819;SDS011;392;48.838;2.322;2023-08-08T01:48:32;2.90;;;2.67;;
819;SDS011;392;48.838;2.322;2023-08-08T01:51:00;3.80;;;2.83;;
819;SDS011;392;48.838;2.322;2023-08-08T01:53:27;3.97;;;2.90;;
819;SDS011;392;48.838;2.322;2023-08-08T01:55:54;3.13;;;2.83;;
819;SDS011;392;48.838;2.322;2023-08-08T01:58:23;2.60;;;2.40;;
819;SDS011;392;48.838;2.322;2023-08-08T02:00:51;2.73;;;2.43;;
819;SDS011;392;48.838;2.322;2023-08-08T02:03:18;3.53;;;2.80;;
819;SDS011;392;48.838;2.322;2023-08-08T02:05:45;2.43;;;2.30;;
819;SDS011;392;48.838;2.322;2023-08-08T02:08:13;3.37;;;2.67;;
819;SDS011;392;48.838;2.322;2023-08-08T02:10:41;3.03;;;2.30;;
819;SDS011;392;48.838;2.322;2023-08-08T02:13:08;3.10;;;2.37;;
819;SDS011;392;48.838;2.322;2023-08-08T02:15:37;3.13;;;2.80;;
819;SDS011;392;48.838;2.322;2023-08-08T02:18:05;3.10;;;2.83;;
819;SDS011;392;48.838;2.322;2023-08-08T02:20:34;4.43;;;2.60;;
819;SDS011;392;48.838;2.322;2023-08-08T02:23:01;3.50;;;2.57;;
819;SDS011;392;48.838;2.322;2023-08-08T02:25:30;4.00;;;3.03;;
819;SDS011;392;48.838;2.322;2023-08-08T02:27:57;2.90;;;2.70;;
819;SDS011;392;48.838;2.322;2023-08-08T02:30:25;3.27;;;2.40;;
819;SDS011;392;48.838;2.322;2023-08-08T02:32:53;4.13;;;2.73;;
819;SDS011;392;48.838;2.322;2023-08-08T02:35:21;4.60;;;2.67;;
819;SDS011;392;48.838;2.322;2023-08-08T02:37:49;3.30;;;3.00;;
819;SDS011;392;48.838;2.322;2023-08-08T02:40:16;2.77;;;2.57;;
819;SDS011;392;48.838;2.322;2023-08-08T02:42:43;2.83;;;2.60;;
819;SDS011;392;48.838;2.322;2023-08-08T02:45:11;3.53;;;3.00;;
819;SDS011;392;48.838;2.322;2023-08-08T02:47:37;2.90;;;2.53;;
819;SDS011;392;48.838;2.322;2023-08-08T02:50:06;2.80;;;2.50;;
819;SDS011;392;48.838;2.322;2023-08-08T02:52:34;3.20;;;2.90;;
819;SDS011;392;48.838;2.322;2023-08-08T02:55:02;3.40;;;2.70;;
819;SDS011;392;48.838;2.322;2023-08-08T02:57:30;2.83;;;2.50;;
819;SDS011;392;48.838;2.322;2023-08-08T02:59:58;3.77;;;3.40;;
819;SDS011;392;48.838;2.322;2023-08-08T03:02:29;3.93;;;3.20;;
819;SDS011;392;48.838;2.322;2023-08-08T03:04:56;2.83;;;2.63;;
819;SDS011;392;48.838;2.322;2023-08-08T03:07:26;3.00;;;2.80;;
819;SDS011;392;48.838;2.322;2023-08-08T03:09:53;2.83;;;2.70;;
819;SDS011;392;48.838;2.322;2023-08-08T03:12:21;3.17;;;2.70;;
819;SDS011;392;48.838;2.322;2023-08-08T03:14:51;3.37;;;3.17;;
819;SDS011;392;48.838;2.322;2023-08-08T03:17:18;3.07;;;2.80;;
819;SDS011;392;48.838;2.322;2023-08-08T03:19:45;10.70;;;3.90;;
819;SDS011;392;48.838;2.322;2023-08-08T03:22:14;2.80;;;2.60;;
819;SDS011;392;48.838;2.322;2023-08-08T03:24:43;2.60;;;2.40;;
819;SDS011;392;48.838;2.322;2023-08-08T03:27:10;3.33;;;3.10;;
819;SDS011;392;48.838;2.322;2023-08-08T03:29:38;2.83;;;2.60;;
819;SDS011;392;48.838;2.322;2023-08-08T03:32:06;3.17;;;2.97;;
819;SDS011;392;48.838;2.322;2023-08-08T03:34:34;5.53;;;3.00;;
819;SDS011;392;48.838;2.322;2023-08-08T03:37:03;3.83;;;2.73;;
819;SDS011;392;48.838;2.322;2023-08-08T03:39:30;4.10;;;2.87;;
819;SDS011;392;48.838;2.322;2023-08-08T03:42:00;2.80;;;2.50;;
819;SDS011;392;48.838;2.322;2023-08-08T03:44:28;2.70;;;2.60;;
819;SDS011;392;48.838;2.322;2023-08-08T03:46:55;2.57;;;2.33;;
819;SDS011;392;48.838;2.322;2023-08-08T03:49:23;3.47;;;3.17;;
819;SDS011;392;48.838;2.322;2023-08-08T03:51:51;4.40;;;3.00;;
819;SDS011;392;48.838;2.322;2023-08-08T03:54:18;2.77;;;2.57;;
819;SDS011;392;48.838;2.322;2023-08-08T03:56:46;2.50;;;2.30;;
819;SDS011;392;48.838;2.322;2023-08-08T03:59:15;3.93;;;2.60;;
819;SDS011;392;48.838;2.322;2023-08-08T04:01:42;3.67;;;2.80;;
819;SDS011;392;48.838;2.322;2023-08-08T04:04:10;5.80;;;2.57;;
819;SDS011;392;48.838;2.322;2023-08-08T04:06:37;4.17;;;2.70;;
819;SDS011;392;48.838;2.322;2023-08-08T04:09:04;3.13;;;2.83;;
819;SDS011;392;48.838;2.322;2023-08-08T04:11:32;2.90;;;2.60;;
819;SDS011;392;48.838;2.322;2023-08-08T04:14:00;2.60;;;2.40;;
819;SDS011;392;48.838;2.322;2023-08-08T04:16:29;3.67;;;3.30;;
819;SDS011;392;48.838;2.322;2023-08-08T04:18:56;3.90;;;2.87;;
819;SDS011;392;48.838;2.322;2023-08-08T04:21:24;4.33;;;3.40;;
819;SDS011;392;48.838;2.322;2023-08-08T04:23:54;3.70;;;3.40;;
819;SDS011;392;48.838;2.322;2023-08-08T04:26:21;2.93;;;2.73;;
819;SDS011;392;48.838;2.322;2023-08-08T04:28:48;4.43;;;2.80;;
819;SDS011;392;48.838;2.322;2023-08-08T04:31:16;3.77;;;2.60;;
819;SDS011;392;48.838;2.322;2023-08-08T04:33:45;2.60;;;2.40;;
819;SDS011;392;48.838;2.322;2023-08-08T04:36:12;3.97;;;2.53;;
819;SDS011;392;48.838;2.322;2023-08-08T04:38:39;4.13;;;2.60;;
819;SDS011;392;48.838;2.322;2023-08-08T04:41:07;3.30;;;2.60;;
819;SDS011;392;48.838;2.322;2023-08-08T04:43:34;3.00;;;2.80;;
819;SDS011;392;48.838;2.322;2023-08-08T04:46:02;13.47;;;3.90;;
819;SDS011;392;48.838;2.322;2023-08-08T04:48:29;4.17;;;2.80;;
819;SDS011;392;48.838;2.322;2023-08-08T04:50:59;5.77;;;3.00;;
819;SDS011;392;48.838;2.322;2023-08-08T04:53:26;3.80;;;3.10;;
819;SDS011;392;48.838;2.322;2023-08-08T04:55:53;5.03;;;2.70;;
819;SDS011;392;48.838;2.322;2023-08-08T04:58:21;6.37;;;3.27;;
819;SDS011;392;48.838;2.322;2023-08-08T05:00:48;3.73;;;3.30;;
819;SDS011;392;48.838;2.322;2023-08-08T05:03:16;3.23;;;2.93;;
819;SDS011;392;48.838;2.322;2023-08-08T05:05:44;3.57;;;2.93;;
819;SDS011;392;48.838;2.322;2023-08-08T05:08:12;3.13;;;2.90;;
819;SDS011;392;48.838;2.322;2023-08-08T05:10:40;3.67;;;3.37;;
819;SDS011;392;48.838;2.322;2023-08-08T05:13:08;4.43;;;3.40;;
819;SDS011;392;48.838;2.322;2023-08-08T05:15:35;6.40;;;3.27;;
819;SDS011;392;48.838;2.322;2023-08-08T05:18:03;3.00;;;2.80;;
819;SDS011;392;48.838;2.322;2023-08-08T05:20:31;3.20;;;2.90;;
819;SDS011;392;48.838;2.322;2023-08-08T05:22:58;4.60;;;3.20;;
819;SDS011;392;48.838;2.322;2023-08-08T05:25:27;3.47;;;3.10;;
819;SDS011;392;48.838;2.322;2023-08-08T05:27:54;6.13;;;3.07;;
819;SDS011;392;48.838;2.322;2023-08-08T05:30:22;6.10;;;3.43;;
819;SDS011;392;48.838;2.322;2023-08-08T05:32:49;3.20;;;2.90;;
819;SDS011;392;48.838;2.322;2023-08-08T05:35:16;4.80;;;3.30;;
819;SDS011;392;48.838;2.322;2023-08-08T05:37:44;3.13;;;2.90;;
819;SDS011;392;48.838;2.322;2023-08-08T05:40:11;3.33;;;2.97;;
819;SDS011;392;48.838;2.322;2023-08-08T05:42:40;2.93;;;2.63;;
819;SDS011;392;48.838;2.322;2023-08-08T05:45:07;3.10;;;2.80;;
819;SDS011;392;48.838;2.322;2023-08-08T05:47:36;3.07;;;2.70;;
819;SDS011;392;48.838;2.322;2023-08-08T05:50:03;3.47;;;2.50;;
819;SDS011;392;48.838;2.322;2023-08-08T05:52:32;2.57;;;2.37;;
819;SDS011;392;48.838;2.322;2023-08-08T05:54:59;3.33;;;3.10;;
819;SDS011;392;48.838;2.322;2023-08-08T05:57:28;2.60;;;2.30;;
819;SDS011;392;48.838;2.322;2023-08-08T05:59:56;5.70;;;3.27;;
819;SDS011;392;48.838;2.322;2023-08-08T06:02:24;3.73;;;2.67;;
819;SDS011;392;48.838;2.322;2023-08-08T06:04:51;3.50;;;2.73;;
819;SDS011;392;48.838;2.322;2023-08-08T06:07:18;2.77;;;2.60;;
819;SDS011;392;48.838;2.322;2023-08-08T06:09:46;4.60;;;2.70;;
819;SDS011;392;48.838;2.322;2023-08-08T06:12:13;4.23;;;2.90;;
819;SDS011;392;48.838;2.322;2023-08-08T06:14:41;2.63;;;2.40;;
819;SDS011;392;48.838;2.322;2023-08-08T06:17:09;3.33;;;2.70;;
819;SDS011;392;48.838;2.322;2023-08-08T06:19:37;2.57;;;2.40;;
819;SDS011;392;48.838;2.322;2023-08-08T06:22:04;3.30;;;2.73;;
819;SDS011;392;48.838;2.322;2023-08-08T06:24:32;4.60;;;2.50;;
819;SDS011;392;48.838;2.322;2023-08-08T06:26:59;8.50;;;3.10;;
819;SDS011;392;48.838;2.322;2023-08-08T06:29:26;3.43;;;3.13;;
819;SDS011;392;48.838;2.322;2023-08-08T06:31:54;3.00;;;2.67;;
819;SDS011;392;48.838;2.322;2023-08-08T06:34:22;3.87;;;2.90;;
819;SDS011;392;48.838;2.322;2023-08-08T06:36:50;2.40;;;2.20;;
819;SDS011;392;48.838;2.322;2023-08-08T06:39:17;2.67;;;2.33;;
819;SDS011;392;48.838;2.322;2023-08-08T06:41:46;3.03;;;2.83;;
819;SDS011;392;48.838;2.322;2023-08-08T06:44:18;2.53;;;2.43;;
819;SDS011;392;48.838;2.322;2023-08-08T06:46:46;3.83;;;2.40;;
819;SDS011;392;48.838;2.322;2023-08-08T06:49:13;3.70;;;2.90;;
819;SDS011;392;48.838;2.322;2023-08-08T06:51:42;2.87;;;2.67;;
819;SDS011;392;48.838;2.322;2023-08-08T06:54:10;2.63;;;2.13;;
819;SDS011;392;48.838;2.322;2023-08-08T06:56:37;2.30;;;2.20;;
819;SDS011;392;48.838;2.322;2023-08-08T06:59:05;2.50;;;2.40;;
819;SDS011;392;48.838;2.322;2023-08-08T07:01:32;2.20;;;2.10;;
819;SDS011;392;48.838;2.322;2023-08-08T07:04:00;2.33;;;2.13;;
819;SDS011;392;48.838;2.322;2023-08-08T07:06:27;2.67;;;2.47;;
819;SDS011;392;48.838;2.322;2023-08-08T07:08:56;4.93;;;2.17;;
819;SDS011;392;48.838;2.322;2023-08-08T07:11:24;2.73;;;2.03;;
819;SDS011;392;48.838;2.322;2023-08-08T07:13:51;5.63;;;2.73;;
819;SDS011;392;48.838;2.322;2023-08-08T07:16:19;5.87;;;2.50;;
819;SDS011;392;48.838;2.322;2023-08-08T07:18:46;2.30;;;2.10;;
819;SDS011;392;48.838;2.322;2023-08-08T07:21:13;2.40;;;2.00;;
819;SDS011;392;48.838;2.322;2023-08-08T07:23:41;4.17;;;2.30;;
819;SDS011;392;48.838;2.322;2023-08-08T07:26:09;2.33;;;2.13;;
819;SDS011;392;48.838;2.322;2023-08-08T07:28:36;4.40;;;2.20;;
819;SDS011;392;48.838;2.322;2023-08-08T07:31:04;3.70;;;2.20;;
819;SDS011;392;48.838;2.322;2023-08-08T07:33:31;2.70;;;2.50;;
819;SDS011;392;48.838;2.322;2023-08-08T07:35:59;3.67;;;2.20;;
819;SDS011;392;48.838;2.322;2023-08-08T07:38:26;3.90;;;2.40;;
819;SDS011;392;48.838;2.322;2023-08-08T07:40:53;2.47;;;2.27;;
819;SDS011;392;48.838;2.322;2023-08-08T07:43:22;2.30;;;2.20;;
819;SDS011;392;48.838;2.322;2023-08-08T07:45:50;2.80;;;2.70;;
819;SDS011;392;48.838;2.322;2023-08-08T07:48:17;4.17;;;2.90;;
819;SDS011;392;48.838;2.322;2023-08-08T07:50:45;2.67;;;2.47;;
819;SDS011;392;48.838;2.322;2023-08-08T07:53:12;3.10;;;2.80;;
819;SDS011;392;48.838;2.322;2023-08-08T07:55:39;4.20;;;3.37;;
819;SDS011;392;48.838;2.322;2023-08-08T07:58:06;3.77;;;3.47;;
819;SDS011;392;48.838;2.322;2023-08-08T08:00:35;3.57;;;3.30;;
819;SDS011;392;48.838;2.322;2023-08-08T08:03:04;5.00;;;2.73;;
819;SDS011;392;48.838;2.322;2023-08-08T08:05:31;7.30;;;3.60;;
819;SDS011;392;48.838;2.322;2023-08-08T08:08:00;4.10;;;3.70;;
819;SDS011;392;48.838;2.322;2023-08-08T08:10:27;3.70;;;3.40;;
819;SDS011;392;48.838;2.322;2023-08-08T08:12:55;3.60;;;3.30;;
819;SDS011;392;48.838;2.322;2023-08-08T08:15:24;4.57;;;3.33;;
819;SDS011;392;48.838;2.322;2023-08-08T08:17:52;3.60;;;3.10;;
819;SDS011;392;48.838;2.322;2023-08-08T08:20:20;3.87;;;3.63;;
819;SDS011;392;48.838;2.322;2023-08-08T08:22:48;3.87;;;3.57;;
819;SDS011;392;48.838;2.322;2023-08-08T08:25:15;3.47;;;3.00;;
819;SDS011;392;48.838;2.322;2023-08-08T08:27:42;5.33;;;3.40;;
819;SDS011;392;48.838;2.322;2023-08-08T08:30:10;3.00;;;2.80;;
819;SDS011;392;48.838;2.322;2023-08-08T08:32:39;2.97;;;2.77;;
819;SDS011;392;48.838;2.322;2023-08-08T08:35:09;3.47;;;2.90;;
819;SDS011;392;48.838;2.322;2023-08-08T08:37:38;2.40;;;2.20;;
819;SDS011;392;48.838;2.322;2023-08-08T08:40:05;5.17;;;2.90;;
819;SDS011;392;48.838;2.322;2023-08-08T08:42:34;3.67;;;3.47;;
819;SDS011;392;48.838;2.322;2023-08-08T08:45:03;3.13;;;2.93;;
819;SDS011;392;48.838;2.322;2023-08-08T08:47:31;3.50;;;3.13;;
819;SDS011;392;48.838;2.322;2023-08-08T08:50:02;3.30;;;3.10;;
819;SDS011;392;48.838;2.322;2023-08-08T08:52:33;3.33;;;3.23;;
819;SDS011;392;48.838;2.322;2023-08-08T08:55:00;4.07;;;3.67;;
819;SDS011;392;48.838;2.322;2023-08-08T08:57:29;3.43;;;3.20;;
819;SDS011;392;48.838;2.322;2023-08-08T08:59:58;3.47;;;3.37;;
819;SDS011;392;48.838;2.322;2023-08-08T09:02:25;3.30;;;3.10;;
819;SDS011;392;48.838;2.322;2023-08-08T09:04:53;3.00;;;2.90;;
819;SDS011;392;48.838;2.322;2023-08-08T09:07:20;4.30;;;4.00;;
819;SDS011;392;48.838;2.322;2023-08-08T09:09:54;4.20;;;4.00;;
819;SDS011;392;48.838;2.322;2023-08-08T09:12:21;3.23;;;3.13;;
819;SDS011;392;48.838;2.322;2023-08-08T09:14:53;3.60;;;3.47;;
819;SDS011;392;48.838;2.322;2023-08-08T09:17:24;3.43;;;3.33;;
819;SDS011;392;48.838;2.322;2023-08-08T09:19:53;4.27;;;3.93;;
819;SDS011;392;48.838;2.322;2023-08-08T09:22:21;4.83;;;4.50;;
819;SDS011;392;48.838;2.322;2023-08-08T09:24:49;4.50;;;4.30;;
819;SDS011;392;48.838;2.322;2023-08-08T09:27:18;4.50;;;4.20;;
819;SDS011;392;48.838;2.322;2023-08-08T09:29:45;4.50;;;4.07;;
819;SDS011;392;48.838;2.322;2023-08-08T09:32:12;4.10;;;3.80;;
819;SDS011;392;48.838;2.322;2023-08-08T09:34:41;4.30;;;4.10;;
819;SDS011;392;48.838;2.322;2023-08-08T09:37:08;3.80;;;3.70;;
819;SDS011;392;48.838;2.322;2023-08-08T09:39:36;4.43;;;4.07;;
819;SDS011;392;48.838;2.322;2023-08-08T09:42:04;4.03;;;3.73;;
819;SDS011;392;48.838;2.322;2023-08-08T09:44:33;5.10;;;4.90;;
819;SDS011;392;48.838;2.322;2023-08-08T09:47:00;4.80;;;4.70;;
819;SDS011;392;48.838;2.322;2023-08-08T09:49:28;4.90;;;4.70;;
819;SDS011;392;48.838;2.322;2023-08-08T09:51:57;4.67;;;4.57;;
819;SDS011;392;48.838;2.322;2023-08-08T09:54:25;5.30;;;5.10;;
819;SDS011;392;48.838;2.322;2023-08-08T09:56:53;4.87;;;4.67;;
819;SDS011;392;48.838;2.322;2023-08-08T09:59:21;5.03;;;4.63;;
819;SDS011;392;48.838;2.322;2023-08-08T10:01:50;5.63;;;5.27;;
819;SDS011;392;48.838;2.322;2023-08-08T10:04:19;6.07;;;5.77;;
819;SDS011;392;48.838;2.322;2023-08-08T10:06:47;22.33;;;9.20;;
819;SDS011;392;48.838;2.322;2023-08-08T10:09:14;5.73;;;5.50;;
819;SDS011;392;48.838;2.322;2023-08-08T10:11:42;5.70;;;5.33;;
819;SDS011;392;48.838;2.322;2023-08-08T10:14:11;5.60;;;5.30;;
819;SDS011;392;48.838;2.322;2023-08-08T10:16:41;5.83;;;5.43;;
819;SDS011;392;48.838;2.322;2023-08-08T10:19:11;7.10;;;6.40;;
819;SDS011;392;48.838;2.322;2023-08-08T10:21:40;6.13;;;5.93;;
819;SDS011;392;48.838;2.322;2023-08-08T10:24:10;5.57;;;5.37;;
819;SDS011;392;48.838;2.322;2023-08-08T10:26:51;5.27;;;4.97;;
819;SDS011;392;48.838;2.322;2023-08-08T10:29:19;4.73;;;4.53;;
819;SDS011;392;48.838;2.322;2023-08-08T10:31:53;4.60;;;4.40;;
819;SDS011;392;48.838;2.322;2023-08-08T10:34:35;4.93;;;4.73;;
819;SDS011;392;48.838;2.322;2023-08-08T10:37:04;4.47;;;4.27;;
819;SDS011;392;48.838;2.322;2023-08-08T10:39:35;4.67;;;4.37;;
819;SDS011;392;48.838;2.322;2023-08-08T10:42:03;3.70;;;3.60;;
819;SDS011;392;48.838;2.322;2023-08-08T10:44:31;3.90;;;3.77;;
819;SDS011;392;48.838;2.322;2023-08-08T10:47:07;3.90;;;3.70;;
819;SDS011;392;48.838;2.322;2023-08-08T10:49:38;4.10;;;3.90;;
819;SDS011;392;48.838;2.322;2023-08-08T10:52:09;3.97;;;3.83;;
819;SDS011;392;48.838;2.322;2023-08-08T10:54:41;3.80;;;3.60;;
819;SDS011;392;48.838;2.322;2023-08-08T10:57:19;4.03;;;3.93;;
819;SDS011;392;48.838;2.322;2023-08-08T10:59:51;4.60;;;4.30;;
819;SDS011;392;48.838;2.322;2023-08-08T11:02:20;3.80;;;3.60;;
819;SDS011;392;48.838;2.322;2023-08-08T11:04:49;3.87;;;3.77;;
819;SDS011;392;48.838;2.322;2023-08-08T11:07:17;3.83;;;3.53;;
819;SDS011;392;48.838;2.322;2023-08-08T11:09:45;4.50;;;4.10;;
819;SDS011;392;48.838;2.322;2023-08-08T11:12:15;4.40;;;3.20;;
819;SDS011;392;48.838;2.322;2023-08-08T11:14:43;4.70;;;4.30;;
819;SDS011;392;48.838;2.322;2023-08-08T11:17:10;4.57;;;4.17;;
819;SDS011;392;48.838;2.322;2023-08-08T11:19:39;4.83;;;4.43;;
819;SDS011;392;48.838;2.322;2023-08-08T11:22:10;3.80;;;3.60;;
819;SDS011;392;48.838;2.322;2023-08-08T11:24:37;3.43;;;3.23;;
819;SDS011;392;48.838;2.322;2023-08-08T11:27:05;3.23;;;3.07;;
819;SDS011;392;48.838;2.322;2023-08-08T11:29:32;3.50;;;3.20;;
819;SDS011;392;48.838;2.322;2023-08-08T11:32:00;3.47;;;3.27;;
819;SDS011;392;48.838;2.322;2023-08-08T11:34:30;3.30;;;3.20;;
819;SDS011;392;48.838;2.322;2023-08-08T11:36:58;3.90;;;3.70;;
819;SDS011;392;48.838;2.322;2023-08-08T11:39:27;3.00;;;2.90;;
819;SDS011;392;48.838;2.322;2023-08-08T11:41:56;4.07;;;3.67;;
819;SDS011;392;48.838;2.322;2023-08-08T11:44:23;3.40;;;3.30;;
819;SDS011;392;48.838;2.322;2023-08-08T11:46:51;3.80;;;3.60;;
819;SDS011;392;48.838;2.322;2023-08-08T11:49:18;3.47;;;3.30;;
819;SDS011;392;48.838;2.322;2023-08-08T11:51:45;3.30;;;3.10;;
819;SDS011;392;48.838;2.322;2023-08-08T11:54:13;2.90;;;2.73;;
819;SDS011;392;48.838;2.322;2023-08-08T11:56:42;3.30;;;3.10;;
819;SDS011;392;48.838;2.322;2023-08-08T11:59:10;3.20;;;3.00;;
819;SDS011;392;48.838;2.322;2023-08-08T12:01:37;3.80;;;3.50;;
819;SDS011;392;48.838;2.322;2023-08-08T12:04:05;4.10;;;3.50;;
819;SDS011;392;48.838;2.322;2023-08-08T12:06:36;3.10;;;2.90;;
819;SDS011;392;48.838;2.322;2023-08-08T12:09:05;2.70;;;2.60;;
819;SDS011;392;48.838;2.322;2023-08-08T12:11:34;2.70;;;2.60;;
819;SDS011;392;48.838;2.322;2023-08-08T12:14:04;3.67;;;3.37;;
819;SDS011;392;48.838;2.322;2023-08-08T12:16:37;3.20;;;3.00;;
819;SDS011;392;48.838;2.322;2023-08-08T12:19:06;3.40;;;3.17;;
819;SDS011;392;48.838;2.322;2023-08-08T12:21:36;3.10;;;3.00;;
819;SDS011;392;48.838;2.322;2023-08-08T12:24:03;3.30;;;3.10;;
819;SDS011;392;48.838;2.322;2023-08-08T12:26:31;3.50;;;3.40;;
819;SDS011;392;48.838;2.322;2023-08-08T12:28:59;3.47;;;3.20;;
819;SDS011;392;48.838;2.322;2023-08-08T12:31:28;3.60;;;3.37;;
819;SDS011;392;48.838;2.322;2023-08-08T12:33:55;3.63;;;3.43;;
819;SDS011;392;48.838;2.322;2023-08-08T12:36:22;3.97;;;3.77;;
819;SDS011;392;48.838;2.322;2023-08-08T12:38:50;4.07;;;3.87;;
819;SDS011;392;48.838;2.322;2023-08-08T12:41:17;3.60;;;3.50;;
819;SDS011;392;48.838;2.322;2023-08-08T12:43:44;4.00;;;3.90;;
819;SDS011;392;48.838;2.322;2023-08-08T12:46:12;5.90;;;5.50;;
819;SDS011;392;48.838;2.322;2023-08-08T12:48:40;4.40;;;4.20;;
819;SDS011;392;48.838;2.322;2023-08-08T12:51:08;4.60;;;4.30;;
819;SDS011;392;48.838;2.322;2023-08-08T12:53:36;4.10;;;3.90;;
819;SDS011;392;48.838;2.322;2023-08-08T12:56:03;3.50;;;3.40;;
819;SDS011;392;48.838;2.322;2023-08-08T13:00:58;3.60;;;3.50;;
819;SDS011;392;48.838;2.322;2023-08-08T13:03:25;3.73;;;3.53;;
819;SDS011;392;48.838;2.322;2023-08-08T13:05:54;3.83;;;3.47;;
819;SDS011;392;48.838;2.322;2023-08-08T13:08:21;3.20;;;3.10;;
819;SDS011;392;48.838;2.322;2023-08-08T13:10:49;3.60;;;3.40;;
819;SDS011;392;48.838;2.322;2023-08-08T13:13:16;3.60;;;3.40;;
819;SDS011;392;48.838;2.322;2023-08-08T13:15:43;3.80;;;3.60;;
819;SDS011;392;48.838;2.322;2023-08-08T13:18:11;3.70;;;3.50;;
819;SDS011;392;48.838;2.322;2023-08-08T13:20:38;3.83;;;3.43;;
819;SDS011;392;48.838;2.322;2023-08-08T13:23:07;3.93;;;3.70;;
819;SDS011;392;48.838;2.322;2023-08-08T13:25:34;3.50;;;3.30;;
819;SDS011;392;48.838;2.322;2023-08-08T13:28:02;3.60;;;3.40;;
819;SDS011;392;48.838;2.322;2023-08-08T13:30:29;2.90;;;2.80;;
819;SDS011;392;48.838;2.322;2023-08-08T13:32:57;3.43;;;3.33;;
819;SDS011;392;48.838;2.322;2023-08-08T13:35:24;3.43;;;3.30;;
819;SDS011;392;48.838;2.322;2023-08-08T13:37:52;2.93;;;2.83;;
819;SDS011;392;48.838;2.322;2023-08-08T13:40:21;3.30;;;3.20;;
819;SDS011;392;48.838;2.322;2023-08-08T13:42:48;3.47;;;3.27;;
819;SDS011;392;48.838;2.322;2023-08-08T13:45:16;2.90;;;2.80;;
819;SDS011;392;48.838;2.322;2023-08-08T13:47:44;2.90;;;2.80;;
819;SDS011;392;48.838;2.322;2023-08-08T13:50:12;2.97;;;2.83;;
819;SDS011;392;48.838;2.322;2023-08-08T13:52:41;2.90;;;2.80;;
819;SDS011;392;48.838;2.322;2023-08-08T13:55:08;2.97;;;2.70;;
819;SDS011;392;48.838;2.322;2023-08-08T13:57:37;2.90;;;2.80;;
819;SDS011;392;48.838;2.322;2023-08-08T14:00:05;3.47;;;2.97;;
819;SDS011;392;48.838;2.322;2023-08-08T14:02:36;2.77;;;2.63;;
819;SDS011;392;48.838;2.322;2023-08-08T14:05:04;3.10;;;2.90;;
819;SDS011;392;48.838;2.322;2023-08-08T14:07:33;4.77;;;2.60;;
819;SDS011;392;48.838;2.322;2023-08-08T14:10:01;3.13;;;2.87;;
819;SDS011;392;48.838;2.322;2023-08-08T14:12:29;4.50;;;3.37;;
819;SDS011;392;48.838;2.322;2023-08-08T14:14:57;2.80;;;2.70;;
819;SDS011;392;48.838;2.322;2023-08-08T14:17:25;2.60;;;2.50;;
819;SDS011;392;48.838;2.322;2023-08-08T14:19:52;2.90;;;2.80;;
819;SDS011;392;48.838;2.322;2023-08-08T14:22:20;2.77;;;2.67;;
819;SDS011;392;48.838;2.322;2023-08-08T14:24:48;3.10;;;3.00;;
819;SDS011;392;48.838;2.322;2023-08-08T14:27:15;2.67;;;2.47;;
819;SDS011;392;48.838;2.322;2023-08-08T14:29:43;2.47;;;2.37;;
819;SDS011;392;48.838;2.322;2023-08-08T14:32:12;2.83;;;2.73;;
819;SDS011;392;48.838;2.322;2023-08-08T14:34:39;2.50;;;2.40;;
819;SDS011;392;48.838;2.322;2023-08-08T14:37:06;2.80;;;2.70;;
819;SDS011;392;48.838;2.322;2023-08-08T14:39:34;2.90;;;2.70;;
819;SDS011;392;48.838;2.322;2023-08-08T14:42:01;2.80;;;2.60;;
819;SDS011;392;48.838;2.322;2023-08-08T14:44:30;2.80;;;2.70;;
819;SDS011;392;48.838;2.322;2023-08-08T14:46:57;2.90;;;2.70;;
819;SDS011;392;48.838;2.322;2023-08-08T14:49:26;2.57;;;2.47;;
819;SDS011;392;48.838;2.322;2023-08-08T14:51:53;2.70;;;2.60;;
819;SDS011;392;48.838;2.322;2023-08-08T14:54:21;2.70;;;2.60;;
819;SDS011;392;48.838;2.322;2023-08-08T14:56:48;2.57;;;2.37;;
819;SDS011;392;48.838;2.322;2023-08-08T14:59:16;2.60;;;2.50;;
819;SDS011;392;48.838;2.322;2023-08-08T15:01:44;2.30;;;2.30;;
819;SDS011;392;48.838;2.322;2023-08-08T15:04:11;2.83;;;2.60;;
819;SDS011;392;48.838;2.322;2023-08-08T15:06:40;2.93;;;2.80;;
819;SDS011;392;48.838;2.322;2023-08-08T15:09:07;3.10;;;3.00;;
819;SDS011;392;48.838;2.322;2023-08-08T15:11:35;3.50;;;2.67;;
819;SDS011;392;48.838;2.322;2023-08-08T15:14:02;2.63;;;2.43;;
819;SDS011;392;48.838;2.322;2023-08-08T15:16:30;2.30;;;2.20;;
819;SDS011;392;48.838;2.322;2023-08-08T15:18:57;2.77;;;2.67;;
819;SDS011;392;48.838;2.322;2023-08-08T15:21:24;3.23;;;2.87;;
819;SDS011;392;48.838;2.322;2023-08-08T15:23:53;3.50;;;2.43;;
819;SDS011;392;48.838;2.322;2023-08-08T15:26:20;2.80;;;2.60;;
819;SDS011;392;48.838;2.322;2023-08-08T15:28:49;2.47;;;2.37;;
819;SDS011;392;48.838;2.322;2023-08-08T15:31:16;3.10;;;2.80;;
819;SDS011;392;48.838;2.322;2023-08-08T15:33:44;2.70;;;2.60;;
819;SDS011;392;48.838;2.322;2023-08-08T15:36:11;4.03;;;3.83;;
819;SDS011;392;48.838;2.322;2023-08-08T15:38:39;3.57;;;2.30;;
819;SDS011;392;48.838;2.322;2023-08-08T15:41:08;2.60;;;2.40;;
819;SDS011;392;48.838;2.322;2023-08-08T15:43:36;2.50;;;2.40;;
819;SDS011;392;48.838;2.322;2023-08-08T15:46:04;5.23;;;3.10;;
819;SDS011;392;48.838;2.322;2023-08-08T15:48:32;2.77;;;2.60;;
819;SDS011;392;48.838;2.322;2023-08-08T15:51:00;6.50;;;2.60;;
819;SDS011;392;48.838;2.322;2023-08-08T15:53:27;3.43;;;2.40;;